Main page
METAR-TAF:

METAR-TAF

Airports :

Destin–Fort Walton Beach Airport

Valparaiso, Florida, United States

latitude: 30-29N, longitude: 086-31W, elevation: 85 ft

Current weather observation

The report was made 55 minutes ago, at 02:56 UTC
Wind 2 mph from the Northwest
Temperature 66°F
Humidity 68%
Pressure 30.05 in. Hg
Visibility: 10 miles
Clear sky

METAR: KVPS 260256Z 32002KT 10SM CLR 19/13 A3005 RMK AO2A SLP182 T01880132 52014 $

Time: 22:51 (03:51 UTC)

Forecast

The report was made 2 hours and 51 minutes ago, at 01:00 UTC
Forecast valid from 26 at 01 UTC to 27 at 07 UTC
Wind 10 mph from the North/Northeast
Visibility 6.2 miles or more
Few clouds at a height of 25000 ft
Becoming
from 26 at 19 UTC to 26 at 20 UTC
Wind 10 mph from the South
Visibility 6.2 miles or more
Few clouds at a height of 25000 ft

TAF: KVPS 260100Z 2601/2707 03009KT 9999 FEW250 QNH3002INS BECMG 2619/2620 18009KT 9999 FEW250 QNH3003INS TX29/2620Z TN15/2611Z

Weather observations and forecasts of more than 4000 airports (METAR and TAF reports).

The available stations are represented by yellow and red dots on the map.

Hover mouse over dot to see the name of the station.

Then click to see weather observations and forecasts.

To change the map : click on the green buttons with a black cross to zoom in, on the green button with a dash to zoom out, or on the green arrows for adjacent maps.


METAR-TAF: